Time;durP1;ratioP1;P1;durP2;ratioP2;P2;SDS_P1;SDS_P2;PMS_P1;PMS_P2;Temp;Humidity;BMP_temperature;BMP_pressure;BME280_temperature;BME280_humidity;BME280_pressure;Samples;Min_cycle;Max_cycle;Signal;HPM_P1;HPM_P2
2022/03/11 00:00:26;;;;;;;;;18.50;15.25;;;;;2.48;73.64;101945.03;146604;579;46016;-73
2022/03/11 00:03:20;;;;;;;;;22.25;19.25;;;;;2.55;72.16;101931.22;146605;635;46020;-70
2022/03/11 00:06:12;;;;;;;;;12.25;11.00;;;;;2.60;73.33;101921.44;146604;576;46916;-70
2022/03/11 00:09:04;;;;;;;;;15.25;13.25;;;;;2.60;72.43;101914.66;146606;620;45050;-71
2022/03/11 00:11:56;;;;;;;;;11.00;10.00;;;;;2.60;72.45;101911.22;146605;602;46012;-72
2022/03/11 00:14:48;;;;;;;;;7.50;7.50;;;;;2.56;73.36;101902.31;146607;569;46020;-72
2022/03/11 00:17:40;;;;;;;;;13.25;10.75;;;;;2.51;72.64;101899.28;146606;569;46017;-71
2022/03/11 00:20:32;;;;;;;;;12.50;12.25;;;;;2.52;72.08;101895.97;146605;585;46021;-71
2022/03/11 00:23:25;;;;;;;;;17.50;14.50;;;;;2.53;72.73;101895.22;146606;612;46012;-72
2022/03/11 00:26:16;;;;;;;;;16.00;11.75;;;;;2.51;72.47;101893.25;146608;611;46010;-71
2022/03/11 00:29:09;;;;;;;;;10.25;9.25;;;;;2.50;72.38;101888.88;146607;571;46012;-71
2022/03/11 00:32:01;;;;;;;;;11.50;9.50;;;;;2.49;72.78;101893.09;146609;594;45020;-74
2022/03/11 00:34:53;;;;;;;;;11.25;9.25;;;;;2.52;71.98;101906.22;146605;606;46016;-74
2022/03/11 00:37:46;;;;;;;;;9.25;9.25;;;;;2.53;73.22;101886.66;146608;583;45020;-72
2022/03/11 00:40:38;;;;;;;;;12.75;9.00;;;;;2.48;73.57;101891.28;146605;577;46016;-74
2022/03/11 00:43:31;;;;;;;;;13.75;12.75;;;;;2.43;73.48;101895.03;146605;632;46020;-74
2022/03/11 00:46:23;;;;;;;;;21.25;16.50;;;;;2.42;73.47;101907.66;146605;627;46012;-70
2022/03/11 00:49:15;;;;;;;;;33.25;31.25;;;;;2.42;72.17;101906.00;146606;704;46021;-70
2022/03/11 00:52:08;;;;;;;;;16.25;13.00;;;;;2.46;71.15;101920.03;146604;643;46016;-71
2022/03/11 00:55:00;;;;;;;;;15.50;12.50;;;;;2.53;70.99;101922.50;146604;598;46020;-72
2022/03/11 00:57:53;;;;;;;;;8.00;8.00;;;;;2.60;71.05;101919.78;146604;629;46012;-71
2022/03/11 01:00:45;;;;;;;;;14.75;12.75;;;;;2.67;70.53;101924.78;146609;586;45020;-72
2022/03/11 01:03:37;;;;;;;;;8.75;8.00;;;;;2.70;69.85;101911.37;146606;585;46017;-72
2022/03/11 01:06:29;;;;;;;;;11.50;8.00;;;;;2.71;70.01;101915.75;146607;639;46020;-72
2022/03/11 01:09:22;;;;;;;;;13.75;13.00;;;;;2.72;70.18;101913.34;146605;634;46013;-72
2022/03/11 01:12:14;;;;;;;;;17.25;15.75;;;;;2.72;70.31;101912.47;146608;689;46010;-71
2022/03/11 01:15:06;;;;;;;;;12.50;9.75;;;;;2.71;71.31;101923.44;146607;628;46012;-71
2022/03/11 01:17:58;;;;;;;;;15.00;12.75;;;;;2.67;71.52;101929.91;146609;607;46010;-71
2022/03/11 01:20:50;;;;;;;;;15.50;14.25;;;;;2.68;70.62;101926.62;146604;569;46917;-70
2022/03/11 01:23:42;;;;;;;;;15.75;15.75;;;;;2.72;71.04;101925.25;146606;565;46020;-70
2022/03/11 01:26:35;;;;;;;;;11.00;11.00;;;;;2.75;71.21;101921.34;146607;577;45016;-71
2022/03/11 01:29:27;;;;;;;;;15.75;13.50;;;;;2.77;70.91;101927.53;146608;606;45020;-70
2022/03/11 01:32:20;;;;;;;;;17.75;15.00;;;;;2.81;70.70;101925.28;146604;615;46013;-71
2022/03/11 01:35:12;;;;;;;;;18.00;12.50;;;;;2.84;71.14;101926.50;146606;626;46020;-71
2022/03/11 01:38:05;;;;;;;;;22.75;20.50;;;;;2.89;71.45;101935.53;146606;591;45027;-70
2022/03/11 01:40:57;;;;;;;;;23.50;21.75;;;;;2.91;71.19;101936.59;146606;606;46021;-70
2022/03/11 01:44:16;;;;;;;;;20.50;20.00;;;;;2.92;70.72;101946.09;146605;624;46012;-70
2022/03/11 01:47:09;;;;;;;;;19.00;18.00;;;;;2.92;71.15;101945.19;146607;738;46011;-70
2022/03/11 01:50:01;;;;;;;;;22.25;19.00;;;;;2.88;70.73;101944.00;146604;573;46016;-68
2022/03/11 01:52:53;;;;;;;;;46.25;36.00;;;;;2.89;71.13;101943.22;146607;626;46020;-73
2022/03/11 01:55:45;;;;;;;;;21.50;20.00;;;;;2.86;71.18;101939.44;146606;589;46013;-72
2022/03/11 01:58:38;;;;;;;;;20.75;18.50;;;;;2.76;71.40;101946.19;146605;571;46020;-71
2022/03/11 02:01:30;;;;;;;;;18.00;16.75;;;;;2.65;71.59;101943.28;146603;584;46015;-71
2022/03/11 02:04:22;;;;;;;;;21.50;19.50;;;;;2.63;71.80;101957.62;146607;648;46010;-72
2022/03/11 02:07:14;;;;;;;;;18.50;15.50;;;;;2.63;72.86;101967.84;146604;611;46916;-70
2022/03/11 02:10:07;;;;;;;;;13.50;11.75;;;;;2.63;71.57;101953.41;146606;592;46021;-70
2022/03/11 02:13:00;;;;;;;;;8.75;8.75;;;;;2.65;71.23;101959.59;146605;611;46016;-71
2022/03/11 02:15:52;;;;;;;;;10.50;9.50;;;;;2.68;70.24;101954.78;146605;583;46020;-73
2022/03/11 02:18:45;;;;;;;;;21.50;15.75;;;;;2.73;70.05;101963.81;146604;613;46012;-72
2022/03/11 02:21:48;;;;;;;;;26.75;22.00;;;;;2.80;70.51;101959.31;146606;624;45020;-72
2022/03/11 02:24:40;;;;;;;;;26.25;21.00;;;;;2.79;71.21;101953.31;146604;570;46014;-71
2022/03/11 02:27:38;;;;;;;;;17.00;16.00;;;;;2.75;72.29;101948.63;146606;624;46020;-73
2022/03/11 02:30:30;;;;;;;;;14.50;12.50;;;;;2.70;72.49;101958.38;146606;599;46012;-72
2022/03/11 02:33:22;;;;;;;;;17.00;15.50;;;;;2.66;72.92;101952.81;146604;579;46020;-71
2022/03/11 02:36:14;;;;;;;;;16.25;14.00;;;;;2.65;72.35;101957.03;146605;574;46012;-71
2022/03/11 02:39:07;;;;;;;;;20.75;19.00;;;;;2.64;72.33;101962.88;146606;572;46020;-73
2022/03/11 02:42:01;;;;;;;;;21.75;18.25;;;;;2.62;73.05;101961.84;146603;622;46014;-72
2022/03/11 02:44:53;;;;;;;;;24.00;19.50;;;;;2.55;73.76;101964.50;146607;582;46014;-72
2022/03/11 02:47:45;;;;;;;;;24.75;18.00;;;;;2.52;72.82;101959.06;146601;719;46017;-71
2022/03/11 02:50:37;;;;;;;;;18.50;17.50;;;;;2.52;73.31;101957.44;146609;628;45020;-72
2022/03/11 02:53:29;;;;;;;;;19.00;16.25;;;;;2.52;73.30;101962.56;146604;681;46013;-71
2022/03/11 02:56:22;;;;;;;;;19.50;17.50;;;;;2.52;71.92;101975.34;146605;585;46020;-70
2022/03/11 02:59:15;;;;;;;;;23.25;22.00;;;;;2.53;72.45;101971.12;146605;590;46012;-69
2022/03/11 03:02:07;;;;;;;;;18.75;16.25;;;;;2.48;72.56;101972.31;146607;578;46010;-73
2022/03/11 03:04:59;;;;;;;;;19.50;17.00;;;;;2.42;71.90;101979.34;146605;644;46016;-67
2022/03/11 03:07:51;;;;;;;;;18.50;17.00;;;;;2.41;72.19;101980.09;146607;576;46020;-68
2022/03/11 03:10:44;;;;;;;;;18.25;16.75;;;;;2.44;71.69;101973.66;146606;564;46016;-70
2022/03/11 03:13:37;;;;;;;;;23.00;19.00;;;;;2.48;72.41;101975.75;146607;596;45020;-69
2022/03/11 03:16:29;;;;;;;;;30.25;27.50;;;;;2.46;72.83;101972.16;146602;593;46017;-72
2022/03/11 03:19:21;;;;;;;;;23.25;20.25;;;;;2.40;72.90;101984.31;146606;571;46010;-71
2022/03/11 03:22:13;;;;;;;;;20.50;19.25;;;;;2.29;73.24;101988.31;146600;645;47012;-71
2022/03/11 03:25:05;;;;;;;;;23.25;17.50;;;;;2.22;72.83;101988.44;146609;645;46010;-71
2022/03/11 03:27:57;;;;;;;;;22.75;21.00;;;;;2.18;72.90;101983.75;146604;565;46016;-71
2022/03/11 03:30:49;;;;;;;;;22.50;20.00;;;;;2.15;72.64;101977.38;146607;624;45029;-71
2022/03/11 03:33:41;;;;;;;;;28.00;23.50;;;;;2.18;72.96;101972.56;146605;634;46012;-72
2022/03/11 03:36:33;;;;;;;;;41.50;33.50;;;;;2.22;72.93;101973.06;146629;582;45921;-68
2022/03/11 03:39:26;;;;;;;;;30.75;27.25;;;;;2.25;72.73;101983.63;146625;564;45016;-69
2022/03/11 03:42:18;;;;;;;;;28.50;26.50;;;;;2.36;73.02;101984.72;146627;593;45020;-68
2022/03/11 03:45:11;;;;;;;;;25.50;22.25;;;;;2.42;72.97;101979.34;146629;632;45017;-69
2022/03/11 03:48:03;;;;;;;;;27.50;20.25;;;;;2.44;73.73;101986.44;146628;564;45921;-71
2022/03/11 03:50:55;;;;;;;;;25.00;23.50;;;;;2.40;72.85;101973.16;146626;578;45016;-70
2022/03/11 03:53:47;;;;;;;;;32.00;26.75;;;;;2.35;73.17;101974.34;146630;582;44021;-72
2022/03/11 03:56:41;;;;;;;;;25.75;24.50;;;;;2.33;73.26;101979.28;146630;614;44029;-70
2022/03/11 03:59:33;;;;;;;;;22.75;21.00;;;;;2.30;73.33;101977.31;146627;589;45021;-71
2022/03/11 04:02:25;;;;;;;;;22.75;18.25;;;;;2.25;73.00;101985.28;146619;603;46944;-72
2022/03/11 04:05:18;;;;;;;;;23.00;20.25;;;;;2.18;72.93;101978.63;146630;565;45010;-72
2022/03/11 04:08:10;;;;;;;;;22.75;19.75;;;;;2.15;73.18;101977.38;146627;599;45917;-72
2022/03/11 04:11:02;;;;;;;;;25.00;21.75;;;;;2.12;72.94;101975.44;146630;571;45020;-72
2022/03/11 04:13:55;;;;;;;;;22.00;21.50;;;;;2.11;73.09;101977.81;146627;581;45016;-72
2022/03/11 04:16:47;;;;;;;;;22.50;22.50;;;;;2.12;73.90;101977.06;146629;599;45021;-72
2022/03/11 04:19:39;;;;;;;;;25.00;23.50;;;;;2.05;73.84;101983.19;146630;720;45031;-70
2022/03/11 04:22:31;;;;;;;;;24.25;21.25;;;;;1.96;73.89;101989.87;146631;571;45011;-74
2022/03/11 04:25:23;;;;;;;;;24.25;19.75;;;;;1.89;73.78;101985.78;146627;611;45016;-72
2022/03/11 04:28:15;;;;;;;;;17.25;15.50;;;;;1.86;73.90;101988.00;146627;738;45020;-74
2022/03/11 04:31:08;;;;;;;;;34.75;30.00;;;;;1.86;74.47;101990.56;146626;600;46917;-71
2022/03/11 04:34:01;;;;;;;;;64.25;46.25;;;;;1.85;74.91;101986.22;146627;626;45020;-72
2022/03/11 04:36:55;;;;;;;;;41.25;37.50;;;;;1.85;73.84;101983.66;146603;581;46016;-74
2022/03/11 04:39:47;;;;;;;;;69.25;52.25;;;;;1.88;73.22;101990.75;146608;628;45020;-71
2022/03/11 04:42:40;;;;;;;;;47.50;38.50;;;;;1.98;73.48;101983.28;146603;608;46917;-74
2022/03/11 04:45:32;;;;;;;;;30.00;25.00;;;;;2.05;73.99;101983.19;146606;608;46021;-73
2022/03/11 04:48:24;;;;;;;;;23.25;19.75;;;;;2.08;72.59;101988.63;146604;580;45917;-73
2022/03/11 04:51:22;;;;;;;;;58.00;47.00;;;;;2.09;72.63;101977.66;146608;564;45020;-73
2022/03/11 04:54:14;;;;;;;;;40.00;36.50;;;;;2.14;72.96;101980.69;146605;726;46012;-73
2022/03/11 04:57:06;;;;;;;;;36.25;30.00;;;;;2.23;72.53;101990.22;146605;593;46020;-72
2022/03/11 04:59:59;;;;;;;;;31.25;23.25;;;;;2.30;72.55;101989.22;146605;618;46014;-73
2022/03/11 05:02:52;;;;;;;;;35.25;28.50;;;;;2.35;71.95;101987.16;146609;592;45031;-69
2022/03/11 05:05:44;;;;;;;;;37.75;32.00;;;;;2.34;72.38;101986.25;146604;659;46012;-73
2022/03/11 05:08:36;;;;;;;;;48.75;37.25;;;;;2.37;72.67;101986.56;146607;553;46010;-71
2022/03/11 05:11:28;;;;;;;;;49.75;39.25;;;;;2.43;72.38;101983.72;146604;643;46014;-72
2022/03/11 05:14:21;;;;;;;;;41.75;37.25;;;;;2.51;72.14;101991.44;146600;584;46921;-71
2022/03/11 05:17:13;;;;;;;;;50.00;38.25;;;;;2.59;72.64;101992.25;146604;625;46916;-70
2022/03/11 05:20:06;;;;;;;;;41.00;37.25;;;;;2.57;72.35;101993.72;146606;745;46020;-72
2022/03/11 05:22:58;;;;;;;;;26.00;21.75;;;;;2.52;72.04;101998.41;146603;577;46017;-73
2022/03/11 05:25:51;;;;;;;;;42.50;36.75;;;;;2.39;73.79;102010.66;146605;621;46020;-72
2022/03/11 05:28:43;;;;;;;;;54.00;42.25;;;;;2.28;73.46;102001.88;146602;572;46016;-73
2022/03/11 05:31:35;;;;;;;;;43.25;35.50;;;;;2.21;72.51;102011.28;146605;688;46020;-72
2022/03/11 05:34:27;;;;;;;;;37.00;31.25;;;;;2.21;73.35;102006.16;146604;606;46016;-72
2022/03/11 05:37:19;;;;;;;;;32.75;27.25;;;;;2.26;72.32;102007.56;146607;592;46010;-73
2022/03/11 05:40:13;;;;;;;;;35.50;28.75;;;;;2.39;72.38;102009.75;146604;698;46016;-72
2022/03/11 05:43:05;;;;;;;;;45.50;39.50;;;;;2.50;72.64;102012.69;146604;617;47010;-73
2022/03/11 05:45:57;;;;;;;;;33.75;28.00;;;;;2.56;72.75;102012.41;146603;565;46917;-73
2022/03/11 05:48:49;;;;;;;;;19.25;18.00;;;;;2.58;72.39;102012.56;146609;672;45020;-73
2022/03/11 05:51:41;;;;;;;;;73.67;56.67;;;;;2.59;72.39;102020.41;146605;620;46013;-73
2022/03/11 05:54:33;;;;;;;;;58.25;47.00;;;;;2.66;72.33;102024.50;146608;563;45028;-73
2022/03/11 05:57:25;;;;;;;;;30.00;27.50;;;;;2.75;72.87;102018.69;146604;581;46012;-73
2022/03/11 06:00:17;;;;;;;;;31.50;27.00;;;;;2.86;71.59;102035.12;146608;599;45021;-73
2022/03/11 06:03:10;;;;;;;;;25.50;22.50;;;;;2.95;71.57;102041.22;146601;564;46016;-72
2022/03/11 06:06:02;;;;;;;;;41.25;35.50;;;;;3.09;71.48;102049.41;146605;632;46020;-73
2022/03/11 06:08:54;;;;;;;;;42.00;35.25;;;;;3.14;71.63;102051.69;146603;575;46917;-71
2022/03/11 06:11:46;;;;;;;;;36.75;32.00;;;;;3.11;70.91;102047.91;146606;584;46020;-71
2022/03/11 06:14:38;;;;;;;;;68.50;52.25;;;;;3.07;69.99;102043.22;146603;639;46017;-73
2022/03/11 06:17:30;;;;;;;;;53.25;42.00;;;;;3.06;70.11;102049.09;146606;569;46020;-74
2022/03/11 06:20:24;;;;;;;;;26.25;25.50;;;;;3.14;70.55;102044.00;146605;567;46017;-71
2022/03/11 06:23:16;;;;;;;;;32.75;31.25;;;;;3.28;69.63;102047.97;146605;608;46021;-74
2022/03/11 06:26:08;;;;;;;;;31.00;29.00;;;;;3.45;69.90;102050.56;146603;596;46016;-72
2022/03/11 06:29:01;;;;;;;;;29.00;26.00;;;;;3.56;69.92;102053.31;146605;582;46021;-71
2022/03/11 06:31:53;;;;;;;;;24.25;24.00;;;;;3.67;68.95;102073.22;146606;648;46012;-71
2022/03/11 06:34:45;;;;;;;;;28.25;23.00;;;;;3.85;69.01;102066.47;146606;570;46020;-73
2022/03/11 06:37:37;;;;;;;;;28.00;25.25;;;;;4.04;68.06;102075.22;146607;591;46012;-72
2022/03/11 06:40:29;;;;;;;;;24.00;23.75;;;;;4.27;68.14;102068.88;146607;592;46010;-73
2022/03/11 06:43:22;;;;;;;;;25.25;20.00;;;;;4.53;66.67;102067.19;146605;603;46017;-72
2022/03/11 06:46:15;;;;;;;;;21.75;19.00;;;;;4.80;65.87;102073.19;146605;569;46020;-68
2022/03/11 06:49:07;;;;;;;;;18.75;18.50;;;;;5.08;66.23;102066.44;146604;743;46016;-68
2022/03/11 06:51:59;;;;;;;;;22.00;19.75;;;;;5.33;65.60;102079.94;146606;580;46010;-70
2022/03/11 06:54:51;;;;;;;;;23.75;19.25;;;;;5.51;63.49;102075.56;146605;670;46014;-68
2022/03/11 06:57:44;;;;;;;;;21.75;19.00;;;;;5.64;63.66;102081.13;146606;579;46010;-69
2022/03/11 07:00:37;;;;;;;;;38.50;35.00;;;;;5.75;65.08;102079.50;146605;592;46016;-70
2022/03/11 07:03:28;;;;;;;;;31.75;28.75;;;;;5.85;65.65;102077.00;146606;571;46010;-70
2022/03/11 07:06:21;;;;;;;;;32.25;25.75;;;;;6.00;64.98;102083.59;146604;585;46017;-68
2022/03/11 07:09:13;;;;;;;;;17.25;17.00;;;;;6.13;63.62;102087.28;146606;569;46010;-71
2022/03/11 07:12:05;;;;;;;;;25.50;22.00;;;;;6.23;63.86;102088.28;146603;673;46017;-72
2022/03/11 07:14:57;;;;;;;;;24.75;21.50;;;;;6.50;63.76;102088.94;146607;585;46010;-71
2022/03/11 07:17:50;;;;;;;;;26.00;22.50;;;;;6.79;63.09;102088.94;146604;583;46012;-71
2022/03/11 07:20:41;;;;;;;;;24.75;22.25;;;;;6.98;61.54;102087.97;146605;620;46011;-71
2022/03/11 07:23:34;;;;;;;;;20.00;17.75;;;;;6.79;60.17;102082.88;146606;579;45016;-71
2022/03/11 07:26:26;;;;;;;;;21.00;19.50;;;;;6.63;61.24;102088.34;146607;801;46020;-71
2022/03/11 07:29:18;;;;;;;;;21.75;17.50;;;;;6.62;62.11;102087.44;146604;597;46016;-73
2022/03/11 07:32:12;;;;;;;;;18.25;16.50;;;;;6.65;61.55;102087.72;146608;611;46010;-68
2022/03/11 07:35:04;;;;;;;;;22.00;20.00;;;;;6.66;61.07;102076.63;146604;564;46013;-70
2022/03/11 07:37:56;;;;;;;;;25.00;20.75;;;;;6.71;61.47;102088.25;146606;598;46020;-69
2022/03/11 07:40:48;;;;;;;;;22.75;18.00;;;;;6.78;61.56;102092.28;146604;579;46016;-70
2022/03/11 07:43:41;;;;;;;;;26.75;20.50;;;;;6.84;62.38;102085.09;146608;564;46010;-69
2022/03/11 07:46:35;;;;;;;;;15.25;15.00;;;;;7.00;61.77;102089.00;146601;599;46016;-69
2022/03/11 07:49:30;;;;;;;;;14.75;14.75;;;;;7.17;61.93;102083.66;146606;567;46010;-69
2022/03/11 07:52:22;;;;;;;;;18.00;17.00;;;;;7.40;59.94;102083.03;146602;629;46016;-69
2022/03/11 07:55:16;;;;;;;;;19.25;18.25;;;;;7.60;61.04;102087.28;146607;569;46010;-69
2022/03/11 07:58:09;;;;;;;;;24.00;20.00;;;;;7.83;60.10;102095.31;146602;581;46917;-70
2022/03/11 08:01:01;;;;;;;;;24.00;21.25;;;;;8.05;59.53;102089.38;146605;571;46020;-70
2022/03/11 08:03:53;;;;;;;;;26.75;23.25;;;;;8.20;58.81;102092.31;146602;588;46016;-71
2022/03/11 08:07:06;;;;;;;;;24.75;22.50;;;;;8.26;59.62;102091.16;146608;676;46010;-69
2022/03/11 08:09:58;;;;;;;;;31.50;28.75;;;;;8.49;59.41;102095.63;146604;594;46035;-69
2022/03/11 08:12:53;;;;;;;;;22.25;20.75;;;;;8.80;61.25;102095.53;146609;611;45021;-70
2022/03/11 08:15:45;;;;;;;;;34.25;29.75;;;;;9.09;59.50;102095.25;146604;585;46012;-72
2022/03/11 08:18:37;;;;;;;;;20.50;19.50;;;;;9.22;56.29;102092.84;146605;642;45032;-73
2022/03/11 08:21:29;;;;;;;;;21.75;20.00;;;;;9.17;54.38;102095.88;146603;613;46017;-73
2022/03/11 08:24:21;;;;;;;;;7.25;6.25;;;;;8.77;47.62;102101.34;146609;570;45020;-73
2022/03/11 08:27:15;;;;;;;;;7.00;6.00;;;;;8.30;47.63;102100.03;146601;652;47917;-72
2022/03/11 08:30:11;;;;;;;;;8.00;6.00;;;;;7.89;49.31;102110.44;146608;602;45020;-73
2022/03/11 08:33:04;;;;;;;;;7.75;6.00;;;;;7.47;52.32;102105.09;146606;588;46016;-76
2022/03/11 08:35:56;;;;;;;;;7.50;7.25;;;;;7.25;54.73;102103.25;146609;600;46010;-74
2022/03/11 08:38:48;;;;;;;;;31.00;24.50;;;;;7.13;54.34;102110.84;146605;576;46025;-74
2022/03/11 08:41:41;;;;;;;;;14.50;10.75;;;;;6.93;52.18;102111.69;146605;573;46021;-72
2022/03/11 08:44:33;;;;;;;;;7.75;7.00;;;;;6.86;54.68;102109.34;146605;563;46012;-75
2022/03/11 08:47:25;;;;;;;;;19.75;17.25;;;;;6.85;52.72;102112.69;146605;585;46010;-75
2022/03/11 08:50:18;;;;;;;;;7.75;7.00;;;;;6.80;54.71;102119.09;146605;582;46013;-75
2022/03/11 08:53:10;;;;;;;;;6.00;6.00;;;;;6.75;55.01;102120.34;146607;578;46020;-74
2022/03/11 08:56:02;;;;;;;;;6.75;6.00;;;;;6.74;56.80;102127.97;146605;644;46917;-74
2022/03/11 08:58:55;;;;;;;;;15.50;12.00;;;;;6.78;56.68;102135.19;146608;644;45021;-74
2022/03/11 09:01:47;;;;;;;;;10.50;10.00;;;;;6.81;57.59;102126.06;146606;606;46012;-75
2022/03/11 09:04:40;;;;;;;;;12.50;11.25;;;;;6.86;56.39;102129.97;146607;587;45024;-73
2022/03/11 09:07:32;;;;;;;;;12.25;10.50;;;;;6.89;57.26;102130.22;146604;624;46033;-73
2022/03/11 09:10:24;;;;;;;;;15.50;13.25;;;;;6.80;56.83;102134.56;146605;577;46020;-73
2022/03/11 09:13:16;;;;;;;;;10.25;10.00;;;;;6.66;56.90;102132.44;146605;579;46012;-73
2022/03/11 09:16:19;;;;;;;;;13.75;11.75;;;;;6.55;56.63;102130.59;146607;597;46010;-73
2022/03/11 09:19:12;;;;;;;;;13.50;10.75;;;;;6.43;57.43;102136.44;146605;564;46012;-73
2022/03/11 09:22:36;;;;;;;;;;;;;;;;;;;;;
2022/03/11 09:25:57;;;;;;;;;;;;;;;;;;;;;
2022/03/11 09:28:58;;;;;;;;;6.75;6.50;;;;;5.90;54.58;102146.97;146607;614;46020;-73
2022/03/11 09:31:56;;;;;;;;;10.50;10.50;;;;;5.56;55.39;102138.66;146605;719;46014;-73
2022/03/11 09:35:25;;;;;;;;;32.25;26.00;;;;;5.27;54.23;102141.97;146607;456;46011;-74
2022/03/11 09:38:17;;;;;;;;;69.00;52.25;;;;;5.08;57.60;102141.87;146626;588;45875;-75
2022/03/11 09:41:10;;;;;;;;;21.25;16.75;;;;;4.93;57.41;102143.00;146627;610;45020;-75
2022/03/11 09:44:03;;;;;;;;;13.25;11.00;;;;;4.89;58.88;102140.91;146625;565;45016;-75
2022/03/11 09:46:55;;;;;;;;;6.00;6.00;;;;;4.93;60.27;102152.37;146628;564;45925;-76
2022/03/11 09:49:47;;;;;;;;;11.25;9.25;;;;;4.94;59.16;102141.31;146625;564;45017;-75
2022/03/11 09:52:42;;;;;;;;;9.75;7.25;;;;;4.99;57.89;102140.09;146628;575;45020;-75
2022/03/11 09:55:34;;;;;;;;;12.00;11.25;;;;;5.12;59.55;102139.63;146627;677;45921;-76
2022/03/11 09:58:26;;;;;;;;;6.25;6.00;;;;;5.18;53.92;102137.63;146625;570;46010;-75
2022/03/11 10:01:18;;;;;;;;;6.75;6.50;;;;;5.31;58.18;102138.91;146631;698;44921;-76
2022/03/11 10:04:11;;;;;;;;;11.75;10.00;;;;;5.40;54.52;102141.47;146631;622;45011;-75
2022/03/11 10:07:04;;;;;;;;;9.00;8.00;;;;;5.41;54.10;102140.69;146624;577;45016;-77
2022/03/11 10:09:56;;;;;;;;;14.75;14.25;;;;;5.38;51.42;102136.94;146631;574;45011;-76
2022/03/11 10:12:52;;;;;;;;;10.00;6.00;;;;;5.39;54.29;102138.72;146626;570;46017;-76
2022/03/11 10:15:45;;;;;;;;;8.50;7.50;;;;;5.51;56.77;102134.75;146625;682;45014;-76
2022/03/11 10:18:38;;;;;;;;;12.00;10.75;;;;;5.76;56.10;102122.50;146629;608;45016;-76
2022/03/11 10:21:42;;;;;;;;;16.25;14.25;;;;;6.01;53.63;102126.62;146627;637;45020;-76
2022/03/11 10:24:34;;;;;;;;;19.25;16.00;;;;;6.20;52.94;102116.34;146624;604;45016;-75
2022/03/11 10:27:26;;;;;;;;;10.75;7.50;;;;;6.26;51.50;102115.97;146627;566;46020;-75
2022/03/11 10:30:19;;;;;;;;;19.00;14.00;;;;;6.34;52.80;102106.38;146629;670;45016;-75
2022/03/11 10:33:17;;;;;;;;;25.50;22.50;;;;;6.46;52.37;102103.22;146629;575;45021;-75
2022/03/11 10:36:15;;;;;;;;;12.50;11.50;;;;;6.69;54.89;102097.50;146616;612;46921;-76
2022/03/11 10:39:40;;;;;;;;;8.75;8.75;;;;;7.14;55.88;102102.34;146604;589;46020;-75
2022/03/11 10:42:32;;;;;;;;;8.75;8.00;;;;;7.71;55.55;102090.81;146598;588;46016;-76
2022/03/11 10:45:24;;;;;;;;;10.75;10.00;;;;;8.22;52.72;102093.31;146601;636;46020;-76
2022/03/11 10:48:17;;;;;;;;;8.50;6.75;;;;;8.58;48.66;102084.25;146600;620;46012;-75
2022/03/11 10:51:48;;;;;;;;;10.75;7.50;;;;;8.73;51.02;102083.78;146606;579;46010;-76
2022/03/11 10:54:46;;;;;;;;;12.50;11.50;;;;;9.06;50.75;102076.00;146600;576;46017;-74
2022/03/11 10:57:42;;;;;;;;;12.25;12.25;;;;;9.38;51.60;102068.16;146602;605;46020;-74
2022/03/11 11:00:42;;;;;;;;;11.50;9.25;;;;;9.63;48.78;102056.31;146597;628;46016;-75
2022/03/11 11:03:35;;;;;;;;;10.75;9.00;;;;;9.83;47.23;102059.50;146606;676;45021;-75
2022/03/11 11:06:27;;;;;;;;;14.75;14.25;;;;;9.91;46.67;102051.53;146599;584;46012;-74
2022/03/11 11:09:23;;;;;;;;;16.75;13.50;;;;;9.93;49.31;102051.63;146602;585;46021;-75
2022/03/11 11:12:16;;;;;;;;;18.75;17.25;;;;;10.08;47.80;102050.19;146598;580;46012;-74
2022/03/11 11:15:09;;;;;;;;;14.75;14.75;;;;;10.33;46.29;102042.56;146601;630;46020;-74
2022/03/11 11:18:04;;;;;;;;;10.25;9.50;;;;;10.28;45.58;102046.53;146601;576;46016;-73
2022/03/11 11:20:58;;;;;;;;;9.00;6.00;;;;;10.02;44.97;102039.34;146602;608;46014;-75
2022/03/11 11:23:50;;;;;;;;;8.00;8.00;;;;;9.82;41.96;102024.94;146600;578;46016;-75
2022/03/11 11:26:43;;;;;;;;;14.00;13.00;;;;;9.79;45.08;102022.12;146603;564;46020;-75
2022/03/11 11:29:36;;;;;;;;;11.75;9.25;;;;;9.83;45.50;102011.19;146598;624;47014;-73
2022/03/11 11:32:29;;;;;;;;;13.75;10.75;;;;;9.87;44.16;102014.91;146605;606;46021;-74
2022/03/11 11:35:40;;;;;;;;;14.50;11.50;;;;;9.99;49.37;102008.03;146602;596;46016;-75
2022/03/11 11:38:42;;;;;;;;;12.75;11.75;;;;;10.16;47.13;102002.41;146602;564;46020;-74
2022/03/11 11:41:35;;;;;;;;;15.00;14.50;;;;;10.23;47.92;102002.87;146597;580;47014;-74
2022/03/11 11:44:54;;;;;;;;;20.25;17.25;;;;;10.10;48.01;101955.31;146602;573;46010;-75
2022/03/11 11:47:46;;;;;;;;;14.50;12.50;;;;;10.64;45.87;102000.69;146595;567;47919;-75
2022/03/11 11:50:47;;;;;;;;;21.25;19.75;;;;;11.05;46.99;101992.31;146603;564;46020;-74
2022/03/11 11:53:54;;;;;;;;;25.00;20.50;;;;;11.39;44.83;101992.94;146598;626;46921;-75
2022/03/11 11:57:22;;;;;;;;;15.25;15.00;;;;;11.26;46.58;101948.75;146604;596;46020;-75
2022/03/11 12:00:37;;;;;;;;;17.25;16.00;;;;;11.76;43.83;101990.22;146600;614;46012;-75
2022/03/11 12:03:54;;;;;;;;;26.75;25.25;;;;;11.84;45.41;101991.66;146604;576;46014;-75
2022/03/11 12:07:05;;;;;;;;;16.00;15.00;;;;;11.80;43.15;101989.63;146597;604;46012;-75
2022/03/11 12:10:01;;;;;;;;;27.00;21.25;;;;;11.80;40.62;101995.72;146603;585;46021;-75
2022/03/11 12:13:05;;;;;;;;;31.25;27.75;;;;;11.94;42.01;102004.47;146600;569;45920;-75
2022/03/11 12:15:57;;;;;;;;;15.50;15.50;;;;;12.09;39.63;102006.28;146602;604;46020;-75
2022/03/11 12:18:50;;;;;;;;;17.00;16.00;;;;;11.98;35.18;102002.97;146599;636;46012;-74
2022/03/11 12:21:45;;;;;;;;;22.25;20.25;;;;;11.70;38.14;102001.09;146600;578;46020;-74
2022/03/11 12:24:39;;;;;;;;;31.00;26.00;;;;;11.33;38.61;101998.59;146599;641;47014;-74
2022/03/11 12:28:08;;;;;;;;;17.00;14.75;;;;;10.99;42.12;102003.16;146602;593;46031;-75
2022/03/11 12:31:01;;;;;;;;;52.25;42.25;;;;;10.80;41.37;102005.25;146600;575;46016;-75
2022/03/11 12:33:54;;;;;;;;;21.50;18.00;;;;;10.60;38.09;101986.59;146602;618;46020;-76
2022/03/11 12:36:52;;;;;;;;;23.75;20.50;;;;;10.46;41.67;102001.97;146597;588;46014;-75
2022/03/11 12:39:44;;;;;;;;;16.75;16.75;;;;;10.23;38.18;102000.28;146602;645;46011;-75
2022/03/11 12:42:43;;;;;;;;;14.25;12.75;;;;;10.11;37.94;102001.16;146598;784;47012;-75
2022/03/11 12:45:41;;;;;;;;;17.00;15.00;;;;;10.07;40.34;101999.16;146603;593;46010;-75
2022/03/11 12:48:39;;;;;;;;;23.00;19.00;;;;;10.23;40.85;101990.81;146597;569;46014;-75
2022/03/11 12:51:31;;;;;;;;;38.75;33.50;;;;;10.55;43.14;101993.16;146600;581;46010;-75
2022/03/11 12:54:27;;;;;;;;;24.50;23.50;;;;;10.88;41.64;101998.94;146598;612;46017;-75
2022/03/11 12:57:19;;;;;;;;;14.00;12.75;;;;;11.15;39.09;101994.75;146602;565;46020;-75
2022/03/11 13:00:23;;;;;;;;;21.75;19.00;;;;;11.35;42.18;101993.53;146596;574;46012;-76
2022/03/11 13:03:18;;;;;;;;;16.75;14.50;;;;;11.44;39.42;101991.56;146603;595;46020;-75
2022/03/11 13:06:13;;;;;;;;;17.25;16.25;;;;;11.54;39.58;101987.88;146597;601;47012;-75
2022/03/11 13:09:06;;;;;;;;;14.00;13.50;;;;;11.66;37.38;101996.50;146603;628;46020;-77
2022/03/11 13:11:59;;;;;;;;;18.00;14.50;;;;;11.72;37.87;101996.91;146600;570;46012;-75
2022/03/11 13:14:51;;;;;;;;;13.00;12.00;;;;;11.63;38.79;102000.59;146602;601;46020;-76
2022/03/11 13:17:51;;;;;;;;;20.25;18.75;;;;;11.59;41.44;102006.37;146598;601;46017;-75
2022/03/11 13:20:45;;;;;;;;;20.00;18.00;;;;;11.62;41.11;101998.78;146603;576;46020;-76
2022/03/11 13:23:48;;;;;;;;;19.25;18.00;;;;;11.54;39.25;102001.78;146600;584;45891;-77